createdAt,value
2023-01-21T00:01:14.488Z,20.50
2023-01-21T00:03:42.507Z,20.40
2023-01-21T00:06:10.145Z,20.50
2023-01-21T00:08:37.228Z,20.40
2023-01-21T00:11:14.283Z,20.40
2023-01-21T00:13:42.840Z,20.40
2023-01-21T00:16:12.003Z,20.40
2023-01-21T00:18:38.932Z,20.40
2023-01-21T00:21:06.184Z,20.40
2023-01-21T00:23:33.105Z,20.40
2023-01-21T00:26:02.927Z,20.40
2023-01-21T00:28:35.815Z,20.40
2023-01-21T00:31:06.215Z,20.30
2023-01-21T00:33:33.878Z,20.30
2023-01-21T00:36:08.082Z,20.30
2023-01-21T00:38:36.065Z,20.30
2023-01-21T00:41:06.764Z,20.30
2023-01-21T00:43:34.822Z,20.30
2023-01-21T00:46:02.149Z,20.30
2023-01-21T00:48:29.071Z,20.30
2023-01-21T00:51:00.586Z,20.30
2023-01-21T00:53:30.664Z,20.30
2023-01-21T00:56:02.790Z,20.30
2023-01-21T00:58:30.763Z,20.30
2023-01-21T01:01:22.735Z,20.30
2023-01-21T01:03:50.711Z,20.30
2023-01-21T01:06:24.046Z,20.20
2023-01-21T01:08:52.070Z,20.20
2023-01-21T01:11:21.594Z,20.20
2023-01-21T01:13:48.523Z,20.20
2023-01-21T01:16:16.538Z,20.20
2023-01-21T01:18:44.308Z,20.20
2023-01-21T01:21:18.771Z,20.10
2023-01-21T01:23:46.687Z,20.10
2023-01-21T01:26:17.575Z,20.20
2023-01-21T01:28:44.814Z,20.10
2023-01-21T01:31:15.496Z,20.10
2023-01-21T01:33:43.005Z,20.10
2023-01-21T01:36:16.887Z,20.20
2023-01-21T01:38:44.314Z,20.10
2023-01-21T01:41:25.539Z,20.10
2023-01-21T01:44:07.101Z,20.10
2023-01-21T01:46:36.913Z,20.10
2023-01-21T01:49:17.003Z,20.10
2023-01-21T01:51:54.664Z,20.10
2023-01-21T01:54:32.111Z,20.00
2023-01-21T01:57:05.489Z,20.00
2023-01-21T01:59:33.543Z,20.00
2023-01-21T02:02:09.903Z,20.00
2023-01-21T02:04:54.990Z,20.00
2023-01-21T02:07:24.982Z,20.00
2023-01-21T02:09:55.843Z,20.00
2023-01-21T02:12:23.796Z,20.00
2023-01-21T02:14:51.119Z,20.00
2023-01-21T02:17:39.475Z,20.00
2023-01-21T02:20:45.112Z,20.00
2023-01-21T02:23:39.092Z,20.00
2023-01-21T02:26:35.081Z,20.00
2023-01-21T02:29:43.824Z,20.00
2023-01-21T02:32:53.779Z,19.90
2023-01-21T02:36:10.152Z,19.90
2023-01-21T02:39:16.765Z,19.90
2023-01-21T02:42:11.585Z,19.90
2023-01-21T02:44:46.862Z,19.90
2023-01-21T02:47:33.287Z,19.80
2023-01-21T02:50:26.376Z,19.80
2023-01-21T02:53:02.120Z,19.80
2023-01-21T02:55:38.896Z,19.80
2023-01-21T02:58:16.798Z,19.80
2023-01-21T03:01:33.818Z,19.80
2023-01-21T03:04:33.774Z,19.80
2023-01-21T03:07:27.062Z,19.80
2023-01-21T03:10:05.915Z,19.80
2023-01-21T03:13:03.180Z,19.80
2023-01-21T03:15:57.501Z,19.80
2023-01-21T03:18:41.950Z,19.70
2023-01-21T03:21:21.865Z,19.70
2023-01-21T03:23:53.016Z,19.70
2023-01-21T03:26:30.273Z,19.70
2023-01-21T03:29:09.767Z,19.70
2023-01-21T03:31:40.503Z,19.70
2023-01-21T03:34:13.914Z,19.70
2023-01-21T03:36:53.314Z,19.60
2023-01-21T03:40:12.287Z,19.60
2023-01-21T03:42:39.461Z,19.60
2023-01-21T03:45:08.698Z,19.60
2023-01-21T03:47:38.426Z,19.60
2023-01-21T03:50:22.492Z,19.60
2023-01-21T03:52:49.854Z,19.60
2023-01-21T03:55:18.040Z,19.60
2023-01-21T03:57:45.452Z,19.60
2023-01-21T04:00:13.435Z,19.60
2023-01-21T04:02:40.478Z,19.60
2023-01-21T04:05:08.135Z,19.60
2023-01-21T04:07:35.019Z,19.50
2023-01-21T04:10:02.210Z,19.50
2023-01-21T04:12:29.145Z,19.50
2023-01-21T04:14:56.152Z,19.50
2023-01-21T04:17:23.074Z,19.50
2023-01-21T04:19:52.539Z,19.50
2023-01-21T04:22:20.605Z,19.50
2023-01-21T04:24:48.110Z,19.50
2023-01-21T04:27:15.041Z,19.50
2023-01-21T04:29:42.059Z,19.50
2023-01-21T04:32:08.964Z,19.50
2023-01-21T04:34:35.788Z,19.50
2023-01-21T04:37:02.790Z,19.50
2023-01-21T04:39:29.782Z,19.50
2023-01-21T04:41:56.691Z,19.40
2023-01-21T04:44:23.517Z,19.40
2023-01-21T04:46:50.478Z,19.40
2023-01-21T04:49:17.266Z,19.40
2023-01-21T04:51:44.205Z,19.40
2023-01-21T04:54:11.540Z,19.40
2023-01-21T04:56:38.648Z,19.40
2023-01-21T04:59:05.888Z,19.40
2023-01-21T05:01:32.809Z,19.40
2023-01-21T05:03:59.650Z,19.40
2023-01-21T05:06:26.505Z,19.40
2023-01-21T05:08:53.444Z,19.40
2023-01-21T05:11:21.054Z,19.40
2023-01-21T05:13:48.051Z,19.40
2023-01-21T05:16:15.205Z,19.40
2023-01-21T05:18:42.572Z,19.40
2023-01-21T05:21:09.738Z,18.90
2023-01-21T05:23:36.692Z,19.40
2023-01-21T05:26:04.196Z,19.40
2023-01-21T05:28:31.210Z,19.40
2023-01-21T05:31:04.823Z,19.30
2023-01-21T05:33:35.486Z,19.30
2023-01-21T05:36:04.631Z,19.30
2023-01-21T05:38:31.490Z,19.30
2023-01-21T05:41:02.111Z,19.30
2023-01-21T05:43:30.153Z,19.30
2023-01-21T05:45:57.381Z,19.30
2023-01-21T05:48:24.995Z,19.30
2023-01-21T05:50:52.051Z,19.30
2023-01-21T05:53:19.097Z,19.30
2023-01-21T05:55:46.055Z,19.30
2023-01-21T05:58:13.098Z,19.30
2023-01-21T06:00:41.857Z,19.20
2023-01-21T06:03:09.476Z,19.30
2023-01-21T06:05:37.018Z,19.30
2023-01-21T06:08:04.382Z,19.30
2023-01-21T06:10:31.242Z,19.30
2023-01-21T06:12:58.126Z,19.20
2023-01-21T06:15:26.052Z,19.20
2023-01-21T06:17:53.675Z,19.20
2023-01-21T06:20:20.915Z,19.30
2023-01-21T06:22:48.014Z,19.20
2023-01-21T06:25:15.097Z,19.20
2023-01-21T06:27:41.971Z,19.20
2023-01-21T06:30:10.934Z,19.20
2023-01-21T06:32:38.160Z,19.20
2023-01-21T06:35:05.761Z,19.20
2023-01-21T06:37:32.978Z,19.20
2023-01-21T06:39:59.899Z,19.10
2023-01-21T06:42:26.861Z,19.20
2023-01-21T06:44:53.708Z,19.20
2023-01-21T06:47:20.667Z,19.20
2023-01-21T06:49:47.586Z,19.10
2023-01-21T06:52:14.506Z,19.10
2023-01-21T06:54:41.399Z,19.10
2023-01-21T06:57:08.318Z,19.10
2023-01-21T06:59:35.491Z,19.10
2023-01-21T07:02:02.514Z,19.10
2023-01-21T07:04:29.616Z,19.10
2023-01-21T07:06:57.037Z,19.10
2023-01-21T07:09:24.052Z,19.10
2023-01-21T07:11:51.117Z,19.10
2023-01-21T07:14:18.061Z,19.10
2023-01-21T07:16:45.005Z,19.10
2023-01-21T07:19:12.281Z,19.10
2023-01-21T07:21:41.317Z,19.10
2023-01-21T07:24:09.912Z,19.00
2023-01-21T07:26:38.153Z,19.00
2023-01-21T07:29:06.717Z,19.10
2023-01-21T07:31:34.223Z,19.10
2023-01-21T07:34:01.643Z,19.10
2023-01-21T07:36:28.557Z,19.10
2023-01-21T07:38:56.109Z,19.00
2023-01-21T07:41:23.865Z,19.00
2023-01-21T07:43:51.729Z,19.00
2023-01-21T07:46:20.957Z,19.00
2023-01-21T07:48:51.831Z,19.00
2023-01-21T07:51:22.995Z,19.00
2023-01-21T07:53:50.118Z,19.00
2023-01-21T07:56:18.439Z,19.00
2023-01-21T07:58:47.090Z,19.00
2023-01-21T08:01:14.478Z,19.00
2023-01-21T08:03:41.905Z,19.00
2023-01-21T08:06:08.843Z,19.00
2023-01-21T08:08:35.892Z,19.00
2023-01-21T08:11:03.048Z,19.00
2023-01-21T08:13:30.405Z,19.00
2023-01-21T08:15:57.797Z,19.00
2023-01-21T08:18:25.594Z,19.00
2023-01-21T08:21:00.118Z,19.00
2023-01-21T08:23:28.000Z,19.00
2023-01-21T08:25:55.257Z,19.00
2023-01-21T08:28:23.345Z,19.00
2023-01-21T08:30:50.314Z,18.90
2023-01-21T08:33:17.348Z,19.00
2023-01-21T08:35:44.306Z,18.90
2023-01-21T08:38:11.292Z,18.90
2023-01-21T08:40:38.421Z,19.00
2023-01-21T08:43:07.881Z,19.00
2023-01-21T08:45:35.388Z,18.90
2023-01-21T08:48:04.072Z,19.00
2023-01-21T08:50:31.254Z,19.00
2023-01-21T08:52:58.200Z,19.00
2023-01-21T08:55:26.785Z,19.00
2023-01-21T08:57:58.439Z,19.00
2023-01-21T09:00:25.972Z,19.00
2023-01-21T09:02:53.882Z,19.10
2023-01-21T09:05:20.960Z,19.10
2023-01-21T09:07:47.931Z,19.00
2023-01-21T09:10:38.095Z,19.10
2023-01-21T09:13:07.490Z,19.10
2023-01-21T09:15:43.231Z,19.10
2023-01-21T09:18:10.981Z,19.10
2023-01-21T09:20:39.900Z,19.00
2023-01-21T09:23:24.691Z,19.00
2023-01-21T09:26:02.243Z,19.00
2023-01-21T09:28:30.056Z,19.10
2023-01-21T09:30:59.639Z,19.00
2023-01-21T09:33:29.235Z,19.10
2023-01-21T09:36:01.991Z,19.00
2023-01-21T09:38:29.561Z,19.00
2023-01-21T09:41:25.220Z,19.00
2023-01-21T09:44:20.245Z,19.10
2023-01-21T09:47:02.248Z,19.00
2023-01-21T09:49:37.566Z,19.00
2023-01-21T09:52:16.688Z,19.00
2023-01-21T09:54:43.825Z,19.00
2023-01-21T09:57:34.231Z,19.00
2023-01-21T10:00:25.058Z,19.00
2023-01-21T10:03:31.885Z,19.10
2023-01-21T10:06:36.169Z,19.10
2023-01-21T10:09:24.462Z,19.10
2023-01-21T10:12:31.598Z,19.10
2023-01-21T10:15:12.826Z,19.10
2023-01-21T10:18:03.260Z,19.10
2023-01-21T10:20:57.751Z,19.10
2023-01-21T10:23:43.093Z,19.10
2023-01-21T10:26:14.630Z,19.10
2023-01-21T10:28:54.989Z,19.10
2023-01-21T10:31:29.148Z,19.10
2023-01-21T10:33:57.050Z,19.10
2023-01-21T10:36:48.254Z,19.10
2023-01-21T10:39:31.493Z,19.10
2023-01-21T10:42:13.478Z,19.20
2023-01-21T10:45:17.107Z,19.20
2023-01-21T10:48:00.377Z,19.20
2023-01-21T10:50:52.533Z,19.20
2023-01-21T10:53:36.832Z,19.20
2023-01-21T10:56:39.882Z,19.20
2023-01-21T10:59:16.598Z,19.20
2023-01-21T11:01:49.135Z,19.20
2023-01-21T11:04:19.803Z,19.20
2023-01-21T11:07:00.988Z,19.20
2023-01-21T11:09:37.257Z,19.20
2023-01-21T11:12:04.511Z,19.20
2023-01-21T11:14:31.530Z,19.20
2023-01-21T11:16:58.757Z,19.20
2023-01-21T11:19:32.832Z,19.20
2023-01-21T11:22:12.760Z,19.20
2023-01-21T11:24:51.734Z,19.20
2023-01-21T11:27:37.634Z,19.20
2023-01-21T11:30:21.133Z,19.20
2023-01-21T11:32:54.718Z,19.30
2023-01-21T11:35:23.561Z,19.30
2023-01-21T11:37:50.701Z,19.40
2023-01-21T11:40:26.969Z,19.50
2023-01-21T11:42:56.889Z,19.70
2023-01-21T11:45:37.977Z,19.80
2023-01-21T11:48:21.244Z,20.00
2023-01-21T11:50:48.375Z,20.20
2023-01-21T11:53:18.195Z,20.40
2023-01-21T11:56:00.049Z,20.50
2023-01-21T11:58:33.129Z,20.70
2023-01-21T12:01:07.971Z,20.90
2023-01-21T12:04:00.730Z,21.00
2023-01-21T12:06:30.834Z,21.20
2023-01-21T12:09:04.807Z,21.40
2023-01-21T12:11:32.739Z,21.50
2023-01-21T12:14:37.998Z,21.60
2023-01-21T12:17:29.763Z,21.80
2023-01-21T12:20:29.550Z,21.90
2023-01-21T12:23:05.225Z,22.00
2023-01-21T12:26:23.432Z,22.20
2023-01-21T12:29:11.464Z,22.30
2023-01-21T12:31:50.967Z,22.40
2023-01-21T12:35:22.175Z,22.50
2023-01-21T12:38:02.570Z,22.60
2023-01-21T12:40:36.261Z,22.60
2023-01-21T12:43:15.123Z,22.70
2023-01-21T12:45:53.563Z,22.80
2023-01-21T12:48:32.142Z,22.90
2023-01-21T12:51:09.734Z,22.90
2023-01-21T12:53:44.356Z,23.00
2023-01-21T12:56:33.236Z,23.00
2023-01-21T12:59:19.916Z,23.10
2023-01-21T13:02:20.835Z,23.20
2023-01-21T13:05:27.391Z,23.30
2023-01-21T13:08:33.716Z,23.30
2023-01-21T13:11:36.720Z,23.30
2023-01-21T13:14:09.785Z,23.40
2023-01-21T13:16:51.584Z,23.40
2023-01-21T13:19:18.580Z,23.50
2023-01-21T13:22:08.969Z,23.50
2023-01-21T13:25:13.774Z,23.60
2023-01-21T13:27:45.537Z,23.60
2023-01-21T13:30:12.331Z,23.60
2023-01-21T13:33:19.668Z,23.70
2023-01-21T13:36:30.638Z,23.70
2023-01-21T13:39:26.753Z,23.70
2023-01-21T13:42:34.650Z,23.80
2023-01-21T13:45:38.653Z,23.80
2023-01-21T13:48:32.613Z,23.90
2023-01-21T13:51:47.976Z,23.90
2023-01-21T13:54:45.275Z,23.90
2023-01-21T13:57:42.397Z,24.00
2023-01-21T14:00:22.537Z,23.90
2023-01-21T14:03:20.398Z,24.00
2023-01-21T14:06:07.471Z,24.00
2023-01-21T14:09:06.735Z,24.00
2023-01-21T14:11:46.099Z,24.00
2023-01-21T14:14:37.726Z,24.00
2023-01-21T14:17:51.854Z,24.00
2023-01-21T14:20:53.595Z,24.10
2023-01-21T14:24:07.024Z,24.10
2023-01-21T14:26:52.372Z,24.10
2023-01-21T14:29:41.744Z,24.10
2023-01-21T14:32:20.986Z,24.20
2023-01-21T14:35:32.959Z,24.20
2023-01-21T14:38:16.645Z,24.20
2023-01-21T14:40:51.163Z,24.20
2023-01-21T14:43:33.048Z,24.30
2023-01-21T14:46:01.350Z,24.40
2023-01-21T14:48:35.568Z,24.40
2023-01-21T14:51:12.161Z,24.50
2023-01-21T14:54:17.948Z,24.50
2023-01-21T14:57:10.218Z,24.60
2023-01-21T14:59:46.212Z,24.60
2023-01-21T15:02:43.086Z,24.60
2023-01-21T15:05:29.712Z,24.60
2023-01-21T15:08:23.882Z,24.60
2023-01-21T15:11:08.836Z,24.60
2023-01-21T15:13:39.733Z,24.60
2023-01-21T15:16:19.129Z,24.60
2023-01-21T15:19:07.927Z,24.60
2023-01-21T15:21:43.511Z,24.50
2023-01-21T15:24:19.399Z,24.60
2023-01-21T15:27:20.741Z,24.50
2023-01-21T15:30:26.987Z,24.50
2023-01-21T15:32:55.945Z,24.50
2023-01-21T15:35:34.768Z,24.50
2023-01-21T15:38:15.541Z,24.50
2023-01-21T15:40:53.737Z,24.50
2023-01-21T15:43:43.319Z,24.50
2023-01-21T15:46:22.944Z,24.50
2023-01-21T15:49:31.155Z,24.50
2023-01-21T15:52:13.471Z,24.50
2023-01-21T15:54:49.839Z,24.50
2023-01-21T15:57:42.436Z,24.40
2023-01-21T16:00:39.770Z,24.50
2023-01-21T16:03:27.504Z,24.40
2023-01-21T16:06:36.904Z,24.40
2023-01-21T16:09:10.995Z,24.40
2023-01-21T16:12:06.822Z,24.40
2023-01-21T16:15:01.162Z,24.40
2023-01-21T16:18:21.742Z,24.40
2023-01-21T16:20:54.716Z,24.40
2023-01-21T16:23:25.357Z,24.40
2023-01-21T16:25:53.546Z,24.40
2023-01-21T16:28:21.599Z,24.40
2023-01-21T16:30:59.646Z,24.40
2023-01-21T16:33:26.779Z,24.40
2023-01-21T16:35:58.253Z,24.40
2023-01-21T16:38:31.629Z,24.40
2023-01-21T16:41:07.812Z,24.40
2023-01-21T16:43:38.087Z,24.40
2023-01-21T16:46:15.109Z,24.40
2023-01-21T16:48:42.362Z,24.40
2023-01-21T16:51:32.594Z,24.40
2023-01-21T16:54:17.994Z,24.40
2023-01-21T16:57:22.888Z,24.50
2023-01-21T16:59:49.841Z,24.50
2023-01-21T17:02:31.478Z,24.40
2023-01-21T17:05:08.179Z,24.50
2023-01-21T17:07:56.705Z,24.40
2023-01-21T17:10:39.708Z,24.40
2023-01-21T17:13:15.936Z,24.50
2023-01-21T17:15:57.447Z,24.50
2023-01-21T17:18:37.803Z,24.50
2023-01-21T17:21:04.954Z,24.50
2023-01-21T17:23:38.443Z,24.50
2023-01-21T17:26:08.788Z,24.50
2023-01-21T17:28:39.503Z,24.50
2023-01-21T17:31:22.616Z,24.50
2023-01-21T17:34:15.405Z,24.50
2023-01-21T17:36:46.440Z,24.50
2023-01-21T17:39:17.106Z,24.50
2023-01-21T17:41:46.455Z,24.50
2023-01-21T17:44:24.665Z,24.50
2023-01-21T17:46:54.659Z,24.50
2023-01-21T17:49:25.384Z,24.50
2023-01-21T17:51:54.763Z,24.50
2023-01-21T17:54:29.771Z,24.50
2023-01-21T17:57:00.169Z,24.40
2023-01-21T17:59:39.062Z,24.40
2023-01-21T18:02:16.231Z,24.40
2023-01-21T18:04:44.057Z,24.40
2023-01-21T18:07:26.922Z,24.40
2023-01-21T18:09:58.684Z,24.40
2023-01-21T18:12:25.630Z,24.40
2023-01-21T18:14:52.613Z,24.40
2023-01-21T18:17:23.866Z,24.40
2023-01-21T18:19:51.244Z,24.40
2023-01-21T18:22:31.928Z,24.40
2023-01-21T18:25:00.448Z,24.40
2023-01-21T18:27:27.613Z,24.40
2023-01-21T18:29:55.040Z,24.40
2023-01-21T18:32:22.007Z,24.40
2023-01-21T18:34:48.961Z,24.40
2023-01-21T18:37:19.044Z,24.40
2023-01-21T18:39:46.773Z,24.40
2023-01-21T18:42:16.599Z,24.40
2023-01-21T18:44:44.614Z,24.40
2023-01-21T18:47:18.119Z,24.40
2023-01-21T18:49:47.683Z,24.40
2023-01-21T18:52:17.738Z,24.40
2023-01-21T18:54:44.788Z,24.40
2023-01-21T18:57:20.154Z,24.40
2023-01-21T18:59:47.269Z,24.40
2023-01-21T19:02:21.036Z,24.40
2023-01-21T19:04:48.295Z,24.40
2023-01-21T19:07:18.689Z,24.40
2023-01-21T19:09:46.448Z,24.40
2023-01-21T19:12:16.785Z,24.40
2023-01-21T19:14:44.453Z,24.40
2023-01-21T19:17:28.761Z,24.40
2023-01-21T19:19:57.113Z,24.30
2023-01-21T19:22:25.610Z,24.30
2023-01-21T19:24:52.536Z,24.30
2023-01-21T19:27:34.158Z,24.30
2023-01-21T19:30:01.202Z,24.20
2023-01-21T19:32:28.120Z,24.20
2023-01-21T19:34:57.748Z,24.10
2023-01-21T19:37:25.289Z,24.10
2023-01-21T19:39:52.196Z,24.00
2023-01-21T19:42:19.188Z,24.00
2023-01-21T19:44:46.211Z,23.90
2023-01-21T19:47:28.849Z,23.80
2023-01-21T19:49:55.747Z,23.80
2023-01-21T19:52:22.755Z,23.70
2023-01-21T19:54:49.705Z,23.60
2023-01-21T19:57:17.874Z,23.60
2023-01-21T19:59:47.937Z,23.50
2023-01-21T20:02:15.000Z,23.40
2023-01-21T20:04:41.886Z,23.30
2023-01-21T20:07:14.672Z,23.30
2023-01-21T20:09:42.067Z,23.20
2023-01-21T20:12:12.878Z,23.10
2023-01-21T20:14:39.980Z,23.10
2023-01-21T20:17:12.842Z,23.00
2023-01-21T20:19:40.069Z,22.90
2023-01-21T20:22:07.767Z,22.90
2023-01-21T20:24:34.721Z,22.80
2023-01-21T20:27:06.521Z,22.80
2023-01-21T20:29:36.020Z,22.70
2023-01-21T20:32:05.138Z,22.60
2023-01-21T20:34:32.697Z,22.50
2023-01-21T20:37:00.157Z,22.50
2023-01-21T20:39:27.098Z,22.50
2023-01-21T20:41:54.077Z,22.40
2023-01-21T20:44:21.073Z,22.40
2023-01-21T20:46:48.636Z,22.30
2023-01-21T20:49:15.560Z,22.20
2023-01-21T20:51:42.574Z,22.20
2023-01-21T20:54:09.748Z,22.10
2023-01-21T20:56:38.386Z,22.10
2023-01-21T20:59:05.585Z,22.00
2023-01-21T21:01:34.932Z,22.00
2023-01-21T21:04:02.532Z,21.90
2023-01-21T21:06:29.539Z,21.90
2023-01-21T21:08:56.824Z,21.80
2023-01-21T21:11:25.561Z,21.80
2023-01-21T21:13:52.827Z,21.80
2023-01-21T21:16:24.801Z,21.70
2023-01-21T21:18:52.044Z,21.70
2023-01-21T21:21:21.765Z,21.60
2023-01-21T21:23:51.618Z,21.50
2023-01-21T21:26:22.998Z,21.50
2023-01-21T21:28:51.609Z,21.50
2023-01-21T21:31:18.753Z,21.40
2023-01-21T21:33:46.006Z,21.40
2023-01-21T21:36:19.526Z,21.40
2023-01-21T21:38:47.795Z,21.30
2023-01-21T21:41:42.348Z,21.30
2023-01-21T21:44:10.252Z,21.20
2023-01-21T21:46:56.634Z,21.20
2023-01-21T21:49:23.983Z,21.20
2023-01-21T21:51:51.096Z,21.20
2023-01-21T21:54:18.726Z,21.10
2023-01-21T21:56:47.067Z,21.10
2023-01-21T21:59:14.989Z,21.00
2023-01-21T22:01:43.903Z,21.00
2023-01-21T22:04:11.096Z,21.00
2023-01-21T22:06:38.517Z,21.00
2023-01-21T22:09:06.851Z,20.90
2023-01-21T22:11:33.915Z,20.90
2023-01-21T22:14:04.007Z,20.90
2023-01-21T22:16:32.448Z,20.90
2023-01-21T22:19:00.655Z,20.90
2023-01-21T22:21:35.548Z,20.80
2023-01-21T22:24:05.767Z,20.80
2023-01-21T22:26:35.431Z,20.80
2023-01-21T22:29:04.769Z,20.70
2023-01-21T22:31:33.116Z,20.70
2023-01-21T22:34:00.835Z,20.70
2023-01-21T22:36:30.571Z,20.70
2023-01-21T22:38:58.071Z,20.70
2023-01-21T22:41:26.485Z,20.60
2023-01-21T22:43:54.026Z,20.60
2023-01-21T22:46:30.111Z,20.60
2023-01-21T22:48:57.692Z,20.60
2023-01-21T22:51:24.676Z,20.60
2023-01-21T22:53:53.300Z,20.60
2023-01-21T22:56:39.855Z,20.60
2023-01-21T22:59:11.284Z,20.50
2023-01-21T23:01:38.678Z,20.50
2023-01-21T23:04:05.947Z,20.50
2023-01-21T23:06:32.914Z,20.50
2023-01-21T23:08:59.916Z,20.40
2023-01-21T23:11:26.831Z,20.40
2023-01-21T23:13:55.345Z,20.40
2023-01-21T23:16:22.850Z,20.40
2023-01-21T23:18:50.029Z,20.40
2023-01-21T23:21:21.362Z,20.30
2023-01-21T23:23:49.703Z,20.30
2023-01-21T23:26:20.157Z,20.30
2023-01-21T23:28:47.829Z,20.30
2023-01-21T23:31:17.385Z,20.30
2023-01-21T23:33:48.418Z,20.30
2023-01-21T23:36:15.361Z,20.20
2023-01-21T23:38:42.936Z,20.20
2023-01-21T23:41:13.945Z,20.20
2023-01-21T23:43:41.103Z,20.20
2023-01-21T23:46:12.754Z,20.20
2023-01-21T23:48:39.842Z,20.20
2023-01-21T23:51:11.856Z,20.20
2023-01-21T23:53:38.842Z,20.10
2023-01-21T23:56:22.540Z,20.20
2023-01-21T23:58:50.420Z,20.10
